createdAt,value
2022-10-01T00:12:36.740Z,81.17
2022-10-01T00:27:33.127Z,79.78
2022-10-01T00:42:29.404Z,79.13
2022-10-01T00:57:25.396Z,77.58
2022-10-01T01:12:21.528Z,76.64
2022-10-01T01:27:17.755Z,77.48
2022-10-01T01:42:14.273Z,82
2022-10-01T01:57:09.841Z,93.01
2022-10-01T02:12:06.213Z,97.88
2022-10-01T02:27:01.928Z,100
2022-10-01T02:30:57.449Z,100
2022-10-01T02:45:52.890Z,100
2022-10-01T03:00:49.310Z,100
2022-10-01T03:15:45.949Z,100
2022-10-01T03:30:42.470Z,100
2022-10-01T03:45:38.529Z,100
2022-10-01T04:00:34.576Z,100
2022-10-01T04:06:23.104Z,100
2022-10-01T04:21:19.567Z,100
2022-10-01T04:36:15.390Z,100
2022-10-01T04:51:11.906Z,100
2022-10-01T05:06:07.805Z,100
2022-10-01T05:21:04.513Z,100
2022-10-01T05:36:00.389Z,100
2022-10-01T05:50:56.567Z,100
2022-10-01T06:05:52.365Z,100
2022-10-01T06:20:49.093Z,100
2022-10-01T06:35:45.193Z,100
2022-10-01T06:50:41.770Z,94.98
2022-10-01T07:05:38.296Z,96.82
2022-10-01T07:20:34.225Z,96.29
2022-10-01T07:35:30.844Z,95.25
2022-10-01T08:05:24.364Z,93.52
2022-10-01T08:20:20.632Z,92.27
2022-10-01T08:35:16.642Z,91.14
2022-10-01T08:50:13.096Z,91.13
2022-10-01T09:05:09.657Z,85.74
2022-10-01T09:20:06.212Z,86.84
2022-10-01T09:35:04.576Z,98.28
2022-10-01T09:49:58.572Z,100
2022-10-01T10:04:54.711Z,95.5
2022-10-01T10:19:51.610Z,76.34
2022-10-01T10:34:48.559Z,77.55
2022-10-01T10:49:45.653Z,81.56
2022-10-01T11:04:41.786Z,82.26
2022-10-01T11:19:37.629Z,84.46
2022-10-01T11:34:34.111Z,83
2022-10-01T11:42:28.171Z,85.31
2022-10-01T11:57:24.583Z,70.47
2022-10-01T12:12:21.436Z,72.64
2022-10-01T12:27:17.767Z,75.17
2022-10-01T12:42:14.211Z,61.41
2022-10-01T12:57:10.792Z,58.33
2022-10-01T13:12:06.871Z,62.57
2022-10-01T13:27:02.888Z,53.87
2022-10-01T13:41:59.027Z,55.7
2022-10-01T13:56:55.184Z,53.02
2022-10-01T14:11:51.487Z,52.97
2022-10-01T14:26:47.856Z,53.08
2022-10-01T14:41:43.947Z,53.26
2022-10-01T14:56:40.392Z,54.08
2022-10-01T15:11:39.898Z,51.87
2022-10-01T15:26:33.289Z,56.47
2022-10-01T15:41:32.939Z,58.92
2022-10-01T15:56:24.675Z,59.42
2022-10-01T16:11:20.581Z,63.65
2022-10-01T16:26:15.917Z,66.5
2022-10-01T16:41:11.804Z,65.99
2022-10-01T16:56:07.800Z,65.17
2022-10-01T17:11:03.580Z,69.33
2022-10-01T17:25:59.655Z,70.12
2022-10-01T17:40:56.778Z,71.49
2022-10-01T17:55:51.531Z,74.4
2022-10-01T18:10:47.306Z,71.14
2022-10-01T18:25:43.292Z,75.86
2022-10-01T18:40:39.326Z,81.67
2022-10-01T18:55:35.389Z,88.96
2022-10-01T19:10:31.294Z,96.12
2022-10-01T19:25:27.242Z,98.06
2022-10-01T19:40:22.352Z,100
2022-10-01T19:55:18.233Z,100
2022-10-01T20:10:14.545Z,99.08
2022-10-01T20:25:11.291Z,100
2022-10-01T20:40:06.998Z,100
2022-10-01T20:55:02.756Z,100
2022-10-01T21:09:58.896Z,100
2022-10-01T21:24:54.867Z,100
2022-10-01T21:39:51.461Z,100
2022-10-01T21:54:48.216Z,100
2022-10-01T22:09:44.089Z,100
2022-10-01T22:24:40.556Z,100
2022-10-01T22:39:36.270Z,100
2022-10-01T22:54:32.401Z,100
2022-10-01T23:09:28.815Z,100
2022-10-01T23:24:24.750Z,100
2022-10-01T23:39:21.380Z,100
2022-10-01T23:54:17.574Z,100
